Time;durP1;ratioP1;P1;durP2;ratioP2;P2;SDS_P1;SDS_P2;PMS_P1;PMS_P2;Temp;Humidity;BMP_temperature;BMP_pressure;BME280_temperature;BME280_humidity;BME280_pressure;Samples;Min_cycle;Max_cycle;Signal;HPM_P1;HPM_P2
2022/08/30 04:01:40;;;;;;;9.60;8.90;;;18.40;99.90;;;;;;5413022;23;20556;-62
2022/08/30 04:04:07;;;;;;;8.70;8.00;;;18.40;99.90;;;;;;4977111;28;20478;-63
2022/08/30 04:06:34;;;;;;;9.97;9.03;;;18.40;99.90;;;;;;4977118;28;20455;-63
2022/08/30 04:09:01;;;;;;;9.07;8.20;;;18.40;99.90;;;;;;4976742;28;20832;-63
2022/08/30 04:11:28;;;;;;;11.60;9.50;;;18.40;99.90;;;;;;4977049;28;20478;-63
2022/08/30 04:13:55;;;;;;;10.03;9.13;;;18.40;99.90;;;;;;4977110;28;20454;-63
2022/08/30 04:16:23;;;;;;;9.50;8.60;;;18.30;99.90;;;;;;4977115;28;20459;-63
2022/08/30 04:18:51;;;;;;;9.17;8.37;;;18.30;99.90;;;;;;4977050;28;20505;-63
2022/08/30 04:21:18;;;;;;;10.63;9.50;;;18.30;99.90;;;;;;4976741;28;20475;-63
2022/08/30 04:23:45;;;;;;;11.33;10.10;;;18.30;99.90;;;;;;4976482;28;20566;-63
2022/08/30 04:26:12;;;;;;;11.53;10.60;;;18.30;99.90;;;;;;4976247;28;20791;-63
2022/08/30 04:28:39;;;;;;;11.30;10.30;;;18.20;99.90;;;;;;4976596;28;20455;-63
2022/08/30 04:31:08;;;;;;;11.63;10.60;;;18.20;99.90;;;;;;4976765;28;20474;-63
2022/08/30 04:33:35;;;;;;;11.30;10.40;;;18.20;99.90;;;;;;4976621;28;20457;-62
2022/08/30 04:36:05;;;;;;;10.57;9.60;;;18.30;99.90;;;;;;4976815;28;20454;-62
2022/08/30 04:38:33;;;;;;;10.00;9.10;;;18.30;99.90;;;;;;4976480;28;20974;-62
2022/08/30 04:41:00;;;;;;;10.13;9.23;;;18.30;99.90;;;;;;4976161;28;20978;-63
2022/08/30 04:43:26;;;;;;;10.63;9.67;;;18.30;99.90;;;;;;4976478;28;20529;-63
2022/08/30 04:45:55;;;;;;;10.83;9.83;;;18.20;99.90;;;;;;4976473;28;20462;-62
2022/08/30 04:48:22;;;;;;;10.20;9.30;;;18.20;99.90;;;;;;4976463;28;20452;-62
2022/08/30 04:50:50;;;;;;;10.97;10.07;;;18.20;99.90;;;;;;4976109;28;20470;-63
2022/08/30 04:53:18;;;;;;;9.83;9.03;;;18.20;99.90;;;;;;4976604;28;20459;-63
2022/08/30 04:55:45;;;;;;;11.17;10.07;;;18.20;99.90;;;;;;4976271;28;20860;-63
2022/08/30 04:58:12;;;;;;;10.70;9.20;;;18.20;99.90;;;;;;4976351;28;20461;-63
2022/08/30 05:00:40;;;;;;;10.70;9.80;;;18.20;99.90;;;;;;4975687;28;21062;-63
2022/08/30 05:03:07;;;;;;;10.23;9.37;;;18.30;99.90;;;;;;4975943;28;20455;-63
2022/08/30 05:05:40;;;;;;;10.37;9.37;;;18.30;99.90;;;;;;4976255;28;20463;-63
2022/08/30 05:08:07;;;;;;;9.10;8.30;;;18.30;99.90;;;;;;4976109;28;20467;-63
2022/08/30 05:10:38;;;;;;;9.70;8.80;;;18.40;99.90;;;;;;4975854;28;20479;-63
2022/08/30 05:13:05;;;;;;;10.37;9.30;;;18.50;99.90;;;;;;4976035;28;20471;-63
2022/08/30 05:15:32;;;;;;;10.50;9.60;;;18.50;99.90;;;;;;4975415;28;20972;-63
2022/08/30 05:17:58;;;;;;;11.37;10.37;;;18.60;99.90;;;;;;4975696;28;20509;-63
2022/08/30 05:20:25;;;;;;;10.20;9.30;;;18.70;99.90;;;;;;4975733;28;20458;-62
2022/08/30 05:22:52;;;;;;;10.23;9.30;;;18.80;99.90;;;;;;4975783;28;20455;-64
2022/08/30 05:25:20;;;;;;;11.30;9.17;;;18.90;99.90;;;;;;4975681;28;20478;-62
2022/08/30 05:27:48;;;;;;;9.73;8.80;;;19.00;99.90;;;;;;4975599;28;20439;-62
2022/08/30 05:30:17;;;;;;;9.77;8.87;;;19.10;99.90;;;;;;4975164;28;20938;-62
2022/08/30 05:32:43;;;;;;;9.77;8.77;;;19.20;99.90;;;;;;4975480;28;20462;-62
2022/08/30 05:35:12;;;;;;;11.00;9.90;;;19.30;99.90;;;;;;4975876;28;20447;-62
2022/08/30 05:37:40;;;;;;;10.60;9.60;;;19.30;99.90;;;;;;4975491;28;20454;-62
2022/08/30 05:40:08;;;;;;;10.93;9.23;;;19.20;99.90;;;;;;4975610;28;20461;-62
2022/08/30 05:42:35;;;;;;;10.20;9.10;;;19.30;99.90;;;;;;4975224;28;20479;-62
2022/08/30 05:45:04;;;;;;;11.40;10.30;;;19.30;99.90;;;;;;4974715;28;20514;-63
2022/08/30 05:47:32;;;;;;;12.60;10.00;;;19.30;99.90;;;;;;4974884;28;20968;-63
2022/08/30 05:49:59;;;;;;;10.17;9.17;;;19.30;99.90;;;;;;4974902;28;20965;-62
2022/08/30 05:52:25;;;;;;;10.73;9.93;;;19.40;99.90;;;;;;4975108;28;20474;-62
2022/08/30 05:54:57;;;;;;;10.67;9.67;;;19.50;99.90;;;;;;4975223;28;20439;-63
2022/08/30 05:57:25;;;;;;;10.40;9.60;;;19.70;99.90;;;;;;4975184;28;20509;-63
2022/08/30 05:59:52;;;;;;;10.17;9.00;;;19.90;99.90;;;;;;4975116;28;20631;-63
2022/08/30 06:02:20;;;;;;;10.20;9.30;;;20.10;99.90;;;;;;4974688;28;21017;-63
2022/08/30 06:04:46;;;;;;;10.43;9.43;;;20.40;99.90;;;;;;4975154;28;20483;-63
2022/08/30 06:07:13;;;;;;;10.27;9.33;;;20.70;99.90;;;;;;4975298;28;20455;-63
2022/08/30 06:09:40;;;;;;;8.93;8.10;;;21.00;99.90;;;;;;4974986;28;20458;-63
2022/08/30 06:12:07;;;;;;;10.50;9.70;;;21.40;99.90;;;;;;4975012;28;20482;-63
2022/08/30 06:14:34;;;;;;;11.97;10.83;;;21.70;99.90;;;;;;4975054;28;20491;-63
2022/08/30 06:17:00;;;;;;;10.70;9.90;;;21.90;99.90;;;;;;4975081;28;20878;-63
2022/08/30 06:19:29;;;;;;;12.10;11.10;;;22.30;99.90;;;;;;4974969;28;20802;-63
2022/08/30 06:21:55;;;;;;;12.07;10.70;;;22.60;99.90;;;;;;4974922;28;20479;-63
2022/08/30 06:24:22;;;;;;;12.53;10.63;;;22.80;99.90;;;;;;4974849;28;20993;-63
2022/08/30 06:26:49;;;;;;;12.70;11.50;;;22.90;99.90;;;;;;4975360;28;20454;-63
2022/08/30 06:29:19;;;;;;;12.40;11.33;;;23.10;99.90;;;;;;4975855;28;20463;-62
2022/08/30 06:31:47;;;;;;;12.40;10.90;;;23.40;99.90;;;;;;4975638;28;20479;-63
2022/08/30 06:34:13;;;;;;;10.87;9.83;;;23.80;99.90;;;;;;4975709;28;20867;-62
2022/08/30 06:36:41;;;;;;;11.53;10.37;;;24.30;99.90;;;;;;4975112;28;20458;-62
2022/08/30 06:39:09;;;;;;;11.57;10.57;;;24.60;99.90;;;;;;4974751;28;20829;-62
2022/08/30 06:41:38;;;;;;;10.63;9.73;;;25.20;99.90;;;;;;4974898;28;20481;-63
2022/08/30 06:44:06;;;;;;;9.77;8.97;;;25.50;99.90;;;;;;4974813;28;20466;-62
2022/08/30 06:46:35;;;;;;;9.93;8.90;;;25.80;99.90;;;;;;4974850;28;20501;-64
2022/08/30 06:49:02;;;;;;;11.10;9.70;;;26.20;99.90;;;;;;4974757;28;20489;-63
2022/08/30 06:51:31;;;;;;;8.87;8.17;;;26.30;99.90;;;;;;4974613;28;20505;-64
2022/08/30 06:53:59;;;;;;;10.87;9.87;;;26.50;99.90;;;;;;4974306;28;20450;-66
2022/08/30 06:56:26;;;;;;;10.00;9.00;;;26.80;99.90;;;;;;4976348;28;20820;-65
2022/08/30 06:58:53;;;;;;;8.87;8.13;;;27.00;99.90;;;;;;4978321;28;20466;-63
2022/08/30 07:01:23;;;;;;;8.83;8.13;;;27.30;99.80;;;;;;4977904;28;20486;-65
2022/08/30 07:03:50;;;;;;;8.90;8.20;;;27.60;99.90;;;;;;4978076;28;20462;-63
2022/08/30 07:06:18;;;;;;;10.87;8.80;;;27.70;98.30;;;;;;4978124;28;20454;-63
2022/08/30 07:08:45;;;;;;;9.63;8.43;;;28.00;97.40;;;;;;4978138;28;20458;-64
2022/08/30 07:11:13;;;;;;;9.70;8.80;;;27.70;96.80;;;;;;4977963;28;20478;-63
2022/08/30 07:13:40;;;;;;;8.70;8.00;;;27.30;96.80;;;;;;4977764;28;20447;-63
2022/08/30 07:16:11;;;;;;;10.20;9.20;;;26.90;98.30;;;;;;4977667;28;20451;-64
2022/08/30 07:18:49;;;;;;;9.43;8.67;;;26.70;98.30;;;;;;4978058;28;20509;-63
2022/08/30 07:21:18;;;;;;;9.70;8.70;;;26.40;98.40;;;;;;4977543;28;20480;-63
2022/08/30 07:23:47;;;;;;;9.50;8.70;;;26.10;99.50;;;;;;4977857;28;20457;-63
2022/08/30 07:26:17;;;;;;;11.40;9.90;;;25.70;99.70;;;;;;4977810;28;20447;-63
2022/08/30 07:28:45;;;;;;;13.97;9.67;;;25.30;99.90;;;;;;4977496;28;20799;-63
2022/08/30 07:31:13;;;;;;;9.60;8.80;;;25.00;99.90;;;;;;4977601;28;20511;-64
2022/08/30 07:33:40;;;;;;;9.67;8.87;;;24.90;99.90;;;;;;4977656;28;20462;-63
2022/08/30 07:36:08;;;;;;;9.90;9.20;;;24.90;99.90;;;;;;4977590;28;20450;-63
2022/08/30 07:38:34;;;;;;;10.07;9.07;;;24.80;99.90;;;;;;4977793;28;20463;-63
2022/08/30 07:41:01;;;;;;;9.57;8.67;;;24.90;99.90;;;;;;4978057;28;20525;-63
2022/08/30 07:43:30;;;;;;;9.30;8.50;;;24.80;99.90;;;;;;4977681;28;20497;-63
2022/08/30 07:46:01;;;;;;;9.93;9.03;;;24.60;99.90;;;;;;4977399;28;20988;-63
2022/08/30 07:48:28;;;;;;;10.50;9.50;;;24.60;99.90;;;;;;4977655;28;20443;-63
2022/08/30 07:50:55;;;;;;;10.53;9.20;;;24.60;99.90;;;;;;4977280;28;20478;-63
2022/08/30 07:53:21;;;;;;;8.70;7.87;;;24.80;99.90;;;;;;4977380;28;20462;-63
2022/08/30 07:55:48;;;;;;;9.33;8.37;;;25.30;99.90;;;;;;4977014;28;20950;-63
2022/08/30 07:58:15;;;;;;;8.10;7.40;;;25.60;99.90;;;;;;4976893;28;20946;-63
2022/08/30 08:00:43;;;;;;;8.27;7.40;;;25.80;99.90;;;;;;4977102;28;20491;-63
2022/08/30 08:03:10;;;;;;;11.57;7.30;;;26.10;99.90;;;;;;4977108;28;20910;-63
2022/08/30 08:05:38;;;;;;;8.40;7.60;;;26.50;99.90;;;;;;4977436;28;20482;-63
2022/08/30 08:08:05;;;;;;;9.30;7.37;;;26.80;99.90;;;;;;4977056;28;20462;-63
2022/08/30 08:10:32;;;;;;;6.87;6.40;;;27.10;97.30;;;;;;4976792;28;20942;-65
2022/08/30 08:12:59;;;;;;;9.30;6.73;;;27.60;97.60;;;;;;4977235;28;20458;-64
2022/08/30 08:15:27;;;;;;;8.13;6.63;;;28.40;95.40;;;;;;4976972;28;20458;-63
2022/08/30 08:17:55;;;;;;;7.47;6.20;;;29.30;93.70;;;;;;4977372;28;20458;-65
2022/08/30 08:20:23;;;;;;;8.00;6.17;;;30.00;92.10;;;;;;4976967;28;20458;-66
2022/08/30 08:22:50;;;;;;;7.40;5.90;;;30.10;92.10;;;;;;4977093;28;20455;-65
2022/08/30 08:25:17;;;;;;;6.97;6.13;;;30.30;91.30;;;;;;4976900;28;20478;-64
2022/08/30 08:27:46;;;;;;;6.87;6.10;;;30.70;91.00;;;;;;4976690;28;20946;-64
2022/08/30 08:30:16;;;;;;;6.70;6.17;;;31.20;87.30;;;;;;4976924;28;21009;-64
2022/08/30 08:32:42;;;;;;;6.37;5.87;;;31.30;86.40;;;;;;4976357;28;20858;-65
2022/08/30 08:35:11;;;;;;;8.47;5.97;;;31.60;84.10;;;;;;4976773;28;20613;-66
2022/08/30 08:37:38;;;;;;;6.47;5.38;;;31.90;84.90;;;;;;4976350;28;20503;-65
2022/08/30 08:40:06;;;;;;;6.60;6.10;;;32.30;79.50;;;;;;4977013;28;20568;-65
2022/08/30 08:42:46;;;;;;;6.97;6.47;;;32.80;76.10;;;;;;4976987;28;20478;-65
2022/08/30 08:45:19;;;;;;;8.97;6.50;;;33.60;76.80;;;;;;4976468;28;20536;-65
2022/08/30 08:47:55;;;;;;;5.93;5.43;;;34.10;71.60;;;;;;4976578;28;20443;-66
2022/08/30 08:50:25;;;;;;;8.40;5.80;;;34.30;70.10;;;;;;4976863;28;20439;-67
2022/08/30 08:55:46;;;;;;;5.83;5.23;;;34.00;70.80;;;;;;4976608;28;20418;-65
2022/08/30 08:58:22;;;;;;;6.87;6.37;;;34.20;68.90;;;;;;4976593;28;20442;-64
2022/08/30 09:00:49;;;;;;;6.90;6.40;;;34.50;66.50;;;;;;4976356;28;20481;-64
2022/08/30 09:03:18;;;;;;;8.30;5.60;;;34.30;65.10;;;;;;4976330;28;20493;-65
2022/08/30 09:05:47;;;;;;;7.30;5.97;;;34.00;68.40;;;;;;4975989;28;20571;-65
2022/08/30 09:08:16;;;;;;;9.00;6.30;;;33.30;69.70;;;;;;4975878;28;20462;-64
2022/08/30 09:10:50;;;;;;;7.10;6.60;;;32.70;70.10;;;;;;4975993;28;20482;-65
2022/08/30 09:13:17;;;;;;;6.30;5.80;;;32.60;71.30;;;;;;4976070;28;20442;-65
2022/08/30 09:15:43;;;;;;;7.73;6.20;;;33.00;70.10;;;;;;4975779;28;20451;-68
2022/08/30 09:18:10;;;;;;;7.83;7.23;;;33.00;69.20;;;;;;4975296;28;20443;-65
2022/08/30 09:20:40;;;;;;;9.90;6.23;;;33.60;68.60;;;;;;4975516;28;20974;-66
2022/08/30 09:23:27;;;;;;;6.67;6.10;;;34.20;65.10;;;;;;4975497;28;20493;-65
2022/08/30 09:25:59;;;;;;;6.00;5.40;;;35.10;63.60;;;;;;4975663;28;20498;-65
2022/08/30 09:28:28;;;;;;;6.27;5.60;;;36.00;61.60;;;;;;4975541;28;20438;-66
2022/08/30 09:31:03;;;;;;;5.60;5.10;;;36.50;59.30;;;;;;4975662;28;20501;-65
2022/08/30 09:33:31;;;;;;;5.57;5.07;;;36.90;57.80;;;;;;4975709;28;20473;-66
2022/08/30 09:36:12;;;;;;;5.80;5.20;;;37.40;57.40;;;;;;4975577;28;20445;-65
2022/08/30 09:38:40;;;;;;;5.77;5.37;;;37.70;56.60;;;;;;4975197;28;20921;-65
2022/08/30 09:41:26;;;;;;;5.40;4.90;;;37.90;57.20;;;;;;4975366;28;20470;-66
2022/08/30 09:44:06;;;;;;;5.33;4.93;;;38.50;54.40;;;;;;4975454;28;20434;-66
2022/08/30 09:46:33;;;;;;;5.67;5.10;;;38.70;53.10;;;;;;4975230;28;20462;-66
2022/08/30 09:48:59;;;;;;;6.13;5.63;;;38.90;53.80;;;;;;4975290;28;20817;-66
2022/08/30 09:51:46;;;;;;;5.47;5.17;;;39.10;52.80;;;;;;4975483;28;20841;-66
2022/08/30 09:54:22;;;;;;;5.43;5.07;;;39.30;52.00;;;;;;4974977;28;20489;-66
2022/08/30 09:57:01;;;;;;;5.30;4.80;;;39.40;51.00;;;;;;4974887;28;20438;-66
2022/08/30 09:59:44;;;;;;;5.67;5.37;;;39.50;52.50;;;;;;4974900;28;20446;-66
2022/08/30 10:02:36;;;;;;;5.00;4.70;;;39.50;51.30;;;;;;4974704;28;20482;-66
2022/08/30 10:05:10;;;;;;;5.47;5.10;;;39.30;51.00;;;;;;4974832;28;20970;-65
2022/08/30 10:07:45;;;;;;;8.90;4.93;;;39.20;49.70;;;;;;4975006;28;20443;-64
2022/08/30 10:10:21;;;;;;;5.03;4.73;;;39.20;48.60;;;;;;4975341;28;20445;-67
2022/08/30 10:13:00;;;;;;;5.80;4.70;;;39.00;49.30;;;;;;4974740;28;20913;-64
2022/08/30 10:15:31;;;;;;;6.27;4.93;;;38.70;48.30;;;;;;4975033;28;20438;-66
2022/08/30 10:18:06;;;;;;;4.83;4.53;;;38.90;49.30;;;;;;4975054;28;20446;-67
2022/08/30 10:20:41;;;;;;;5.30;5.00;;;38.70;48.20;;;;;;4975069;28;20442;-68
2022/08/30 10:23:15;;;;;;;4.87;4.57;;;38.50;49.10;;;;;;4974870;28;20466;-69
2022/08/30 10:25:48;;;;;;;5.77;5.40;;;38.10;50.20;;;;;;4974865;28;21040;-70
2022/08/30 10:28:20;;;;;;;5.20;4.80;;;38.00;51.10;;;;;;4974802;28;20449;-69
2022/08/30 10:30:53;;;;;;;5.53;5.13;;;37.90;52.00;;;;;;4977758;28;20473;-69
2022/08/30 10:33:25;;;;;;;4.80;4.60;;;37.90;49.20;;;;;;4979069;28;20442;-69
2022/08/30 10:35:56;;;;;;;5.63;5.13;;;38.00;51.60;;;;;;4978408;28;20910;-69
2022/08/30 10:38:28;;;;;;;5.00;4.70;;;38.30;50.70;;;;;;4978593;28;20589;-69
2022/08/30 10:41:16;;;;;;;5.00;4.50;;;38.40;47.60;;;;;;4978539;28;20478;-69
2022/08/30 10:43:52;;;;;;;5.40;4.97;;;38.60;48.00;;;;;;4978685;28;20474;-69
2022/08/30 10:46:26;;;;;;;5.53;5.03;;;38.80;46.50;;;;;;4978598;28;20552;-69
2022/08/30 10:48:55;;;;;;;5.80;5.40;;;38.60;47.80;;;;;;4978700;28;20449;-69
2022/08/30 10:51:40;;;;;;;6.03;4.60;;;38.70;46.50;;;;;;4980546;28;20486;-69
2022/08/30 10:54:12;;;;;;;5.10;4.60;;;38.50;44.90;;;;;;4981347;28;20448;-69
2022/08/30 10:56:42;;;;;;;4.90;4.50;;;38.60;46.50;;;;;;4978876;28;20909;-69
2022/08/30 10:59:10;;;;;;;4.90;4.60;;;38.60;45.40;;;;;;4979687;28;20872;-68
2022/08/30 11:01:50;;;;;;;4.90;4.40;;;38.80;45.60;;;;;;4977885;28;20481;-70
2022/08/30 11:04:49;;;;;;;5.77;5.37;;;38.40;45.10;;;;;;4978472;28;20437;-69
2022/08/30 11:07:28;;;;;;;4.90;4.50;;;38.20;43.90;;;;;;4978050;28;21108;-68
2022/08/30 11:10:22;;;;;;;5.67;5.10;;;37.90;44.10;;;;;;4978502;28;20442;-68
2022/08/30 11:12:58;;;;;;;4.90;4.60;;;37.70;47.70;;;;;;4978221;28;20492;-69
2022/08/30 11:15:28;;;;;;;5.20;4.67;;;37.50;48.50;;;;;;4978882;28;20532;-69
2022/08/30 11:18:00;;;;;;;5.63;5.13;;;37.70;48.70;;;;;;4978444;28;20856;-69
2022/08/30 11:20:38;;;;;;;5.60;5.30;;;37.60;47.90;;;;;;4978041;28;20449;-69
2022/08/30 11:23:28;;;;;;;7.57;4.87;;;37.40;48.20;;;;;;4978442;28;20442;-70
2022/08/30 11:25:58;;;;;;;5.07;4.60;;;36.90;49.20;;;;;;4979308;28;20500;-69
2022/08/30 11:29:07;;;;;;;5.50;5.00;;;36.50;49.00;;;;;;4978141;28;20593;-69
2022/08/30 11:31:39;;;;;;;4.53;4.23;;;36.10;50.50;;;;;;4978092;28;20807;-71
2022/08/30 11:34:07;;;;;;;5.30;4.87;;;35.70;51.80;;;;;;4977956;28;20466;-70
2022/08/30 11:37:03;;;;;;;5.20;4.80;;;35.40;51.00;;;;;;4977989;28;20454;-70
2022/08/30 11:39:57;;;;;;;6.00;5.60;;;34.90;51.00;;;;;;4977732;28;20489;-69
2022/08/30 11:42:43;;;;;;;5.10;4.70;;;34.60;52.30;;;;;;4976721;28;20470;-70
2022/08/30 11:45:54;;;;;;;5.60;5.20;;;34.10;52.20;;;;;;4977328;28;20434;-69
2022/08/30 11:48:50;;;;;;;5.43;5.13;;;33.90;52.90;;;;;;4977490;28;20521;-68
2022/08/30 11:51:59;;;;;;;5.83;5.27;;;33.50;53.00;;;;;;4977088;28;20974;-68
2022/08/30 11:54:34;;;;;;;5.37;5.07;;;33.30;55.80;;;;;;4977426;28;20454;-69
2022/08/30 11:57:10;;;;;;;5.20;4.80;;;33.20;55.30;;;;;;4977919;28;20437;-68
2022/08/30 11:59:47;;;;;;;4.73;4.43;;;33.30;53.90;;;;;;4977196;28;20905;-68
2022/08/30 12:02:47;;;;;;;5.50;5.10;;;33.20;53.10;;;;;;4976855;28;20488;-68
2022/08/30 12:05:50;;;;;;;5.80;5.20;;;33.00;53.20;;;;;;4977186;28;20450;-68
2022/08/30 12:08:43;;;;;;;4.90;4.60;;;32.90;53.20;;;;;;4936186;29;20452;-68
2022/08/30 12:11:43;;;;;;;6.30;5.90;;;32.70;54.00;;;;;;4936238;29;20483;-68
2022/08/30 12:14:46;;;;;;;6.40;5.90;;;32.50;54.60;;;;;;4971581;28;20458;-68
2022/08/30 12:20:23;;;;;;;6.43;5.27;;;32.50;54.30;;;;;;4977750;28;20574;-68
2022/08/30 12:22:52;;;;;;;5.93;5.43;;;32.40;55.20;;;;;;4976562;28;20910;-68
2022/08/30 12:25:28;;;;;;;6.37;5.90;;;32.30;54.80;;;;;;4976272;28;20960;-68
2022/08/30 12:28:13;;;;;;;5.93;5.50;;;32.30;55.60;;;;;;4976692;28;20465;-68
2022/08/30 12:30:40;;;;;;;5.60;5.10;;;32.30;55.30;;;;;;4976669;28;20474;-68
2022/08/30 12:33:12;;;;;;;5.43;5.13;;;32.40;54.60;;;;;;4976756;28;20489;-69
2022/08/30 12:35:42;;;;;;;5.90;5.40;;;32.50;55.60;;;;;;4976784;28;20447;-69
2022/08/30 12:38:18;;;;;;;5.80;5.40;;;32.40;54.30;;;;;;4976536;28;20459;-68
2022/08/30 12:40:52;;;;;;;5.97;5.60;;;32.40;54.20;;;;;;4976816;28;20534;-68
2022/08/30 12:43:25;;;;;;;5.57;5.07;;;32.30;55.60;;;;;;4976457;28;20906;-68
2022/08/30 12:45:56;;;;;;;5.93;5.63;;;32.30;55.40;;;;;;4976751;28;20489;-68
2022/08/30 12:48:23;;;;;;;5.77;5.17;;;32.20;55.70;;;;;;4976592;28;20791;-70
2022/08/30 12:50:52;;;;;;;5.30;5.00;;;32.10;55.60;;;;;;4976741;28;20482;-68
2022/08/30 12:53:27;;;;;;;6.07;5.63;;;32.20;57.90;;;;;;4976534;28;20454;-68
2022/08/30 12:55:58;;;;;;;7.53;5.17;;;32.00;57.50;;;;;;4976827;28;20806;-68
2022/08/30 12:58:36;;;;;;;6.53;6.03;;;32.10;57.20;;;;;;4976463;28;20445;-68
2022/08/30 13:01:18;;;;;;;7.13;6.50;;;32.20;58.80;;;;;;4975984;28;20993;-68
2022/08/30 13:03:59;;;;;;;6.00;5.50;;;32.40;55.80;;;;;;4977184;28;20926;-68
2022/08/30 13:06:47;;;;;;;6.03;5.63;;;32.60;55.30;;;;;;4976215;28;20497;-68
2022/08/30 13:09:30;;;;;;;5.37;4.97;;;32.80;56.20;;;;;;4976832;28;20439;-67
2022/08/30 13:11:57;;;;;;;5.10;4.80;;;32.90;56.20;;;;;;4975947;28;20517;-67
2022/08/30 13:14:33;;;;;;;4.70;4.40;;;33.00;55.80;;;;;;4975834;28;20446;-67
2022/08/30 13:17:11;;;;;;;7.17;5.77;;;33.00;56.10;;;;;;4975936;28;20438;-67
2022/08/30 13:19:39;;;;;;;6.10;5.70;;;32.80;55.00;;;;;;4975492;28;20449;-67
2022/08/30 13:22:23;;;;;;;5.40;5.10;;;32.90;57.60;;;;;;4975509;28;20834;-68
2022/08/30 13:24:52;;;;;;;5.13;4.73;;;32.80;57.00;;;;;;4975871;28;20469;-68
2022/08/30 13:27:19;;;;;;;6.83;6.33;;;32.70;56.80;;;;;;4975418;28;20849;-68
2022/08/30 13:29:46;;;;;;;5.50;5.10;;;32.80;55.60;;;;;;4975285;28;20458;-67
2022/08/30 13:32:14;;;;;;;6.43;5.47;;;32.80;56.40;;;;;;4975507;28;20486;-66
2022/08/30 13:34:41;;;;;;;5.73;5.33;;;32.90;56.10;;;;;;4975560;28;20517;-68
2022/08/30 13:37:12;;;;;;;8.37;5.30;;;33.00;56.10;;;;;;4975579;28;20445;-68
2022/08/30 13:39:39;;;;;;;5.63;5.23;;;33.20;56.60;;;;;;4975597;28;20501;-67
2022/08/30 13:42:08;;;;;;;5.57;5.17;;;33.30;54.20;;;;;;4975374;28;20544;-67
2022/08/30 13:44:34;;;;;;;5.50;5.10;;;33.00;53.10;;;;;;4975563;28;20442;-67
2022/08/30 13:47:02;;;;;;;5.10;4.80;;;32.70;53.10;;;;;;4975057;28;20478;-67
2022/08/30 13:49:30;;;;;;;5.47;4.77;;;32.40;54.20;;;;;;4976252;28;20439;-67
2022/08/30 13:51:57;;;;;;;5.60;5.20;;;32.20;55.50;;;;;;4975105;28;20506;-67
2022/08/30 13:54:24;;;;;;;6.00;5.30;;;32.00;54.80;;;;;;4975285;28;20458;-67
2022/08/30 13:56:53;;;;;;;5.40;5.00;;;31.70;55.10;;;;;;4975195;28;20483;-67
2022/08/30 13:59:22;;;;;;;5.93;5.53;;;31.70;56.00;;;;;;4975103;28;20458;-67
2022/08/30 14:01:50;;;;;;;6.07;5.67;;;31.70;56.50;;;;;;4975128;28;20542;-68
2022/08/30 14:04:17;;;;;;;5.57;5.07;;;31.80;56.10;;;;;;4974965;28;20941;-68
2022/08/30 14:06:44;;;;;;;5.23;4.87;;;32.00;55.40;;;;;;4975328;28;20485;-67
2022/08/30 14:09:13;;;;;;;6.40;5.57;;;32.10;55.20;;;;;;4975133;28;20505;-67
2022/08/30 14:11:40;;;;;;;5.90;5.50;;;32.10;57.00;;;;;;4974924;28;20529;-67
2022/08/30 14:14:07;;;;;;;5.80;5.40;;;32.00;57.20;;;;;;4974796;28;20934;-66
2022/08/30 14:16:38;;;;;;;5.93;5.17;;;32.00;57.20;;;;;;4975173;28;20796;-67
2022/08/30 14:19:06;;;;;;;6.23;5.67;;;32.10;57.30;;;;;;4975166;28;20443;-67
2022/08/30 14:21:33;;;;;;;6.43;5.83;;;32.10;56.60;;;;;;4974568;28;21000;-67
2022/08/30 14:24:00;;;;;;;5.90;5.50;;;32.20;56.70;;;;;;4975012;28;20454;-66
2022/08/30 14:26:29;;;;;;;6.50;6.00;;;32.30;57.20;;;;;;4974770;28;20993;-66
2022/08/30 14:28:56;;;;;;;5.57;5.10;;;32.10;57.10;;;;;;4975077;28;20468;-66
2022/08/30 14:31:24;;;;;;;5.37;4.80;;;32.30;57.10;;;;;;4975088;28;20480;-66
2022/08/30 14:33:52;;;;;;;6.17;5.63;;;32.40;57.10;;;;;;4974826;28;20450;-66
2022/08/30 14:36:19;;;;;;;6.13;5.63;;;32.50;57.30;;;;;;4975138;28;20465;-66
2022/08/30 14:38:45;;;;;;;5.50;5.00;;;32.60;56.10;;;;;;4974924;28;20635;-66
2022/08/30 14:41:12;;;;;;;5.60;5.20;;;32.60;56.20;;;;;;4974924;28;20473;-66
2022/08/30 14:43:40;;;;;;;5.80;5.30;;;32.60;56.10;;;;;;4974469;28;20455;-66
2022/08/30 14:46:07;;;;;;;5.63;5.23;;;32.60;56.10;;;;;;4974841;28;20836;-66
2022/08/30 14:48:35;;;;;;;5.87;5.53;;;32.50;57.50;;;;;;4974851;28;20458;-66
2022/08/30 14:51:10;;;;;;;5.67;5.27;;;32.50;55.90;;;;;;4975228;28;20846;-67
2022/08/30 14:53:37;;;;;;;5.90;5.40;;;32.40;56.00;;;;;;4978034;28;20434;-66
2022/08/30 14:56:08;;;;;;;6.30;5.80;;;32.30;56.10;;;;;;4977421;28;20469;-66
2022/08/30 14:58:34;;;;;;;6.67;5.97;;;32.20;57.00;;;;;;4975394;28;20848;-67
2022/08/30 15:01:01;;;;;;;6.33;5.00;;;32.10;56.50;;;;;;4979411;28;20489;-67
2022/08/30 15:03:28;;;;;;;5.83;5.33;;;32.10;56.30;;;;;;4982674;28;20446;-67
2022/08/30 15:05:54;;;;;;;5.07;4.73;;;32.00;56.70;;;;;;4983142;28;20451;-66
2022/08/30 15:08:22;;;;;;;6.23;5.63;;;31.90;57.10;;;;;;4982592;28;21016;-67
2022/08/30 15:10:49;;;;;;;5.80;5.30;;;31.80;56.70;;;;;;4981755;28;20470;-67
2022/08/30 15:13:16;;;;;;;5.97;5.60;;;31.70;55.90;;;;;;4981295;28;20454;-67
2022/08/30 15:15:43;;;;;;;6.10;5.70;;;31.60;56.00;;;;;;4976881;28;20459;-67
2022/08/30 15:18:09;;;;;;;6.03;5.47;;;31.60;56.80;;;;;;4980792;28;20526;-67
2022/08/30 15:20:36;;;;;;;6.47;5.37;;;31.60;56.50;;;;;;4979971;28;20459;-67
2022/08/30 15:23:04;;;;;;;6.27;5.77;;;31.60;56.40;;;;;;4982692;28;20459;-66
2022/08/30 15:25:32;;;;;;;6.73;5.53;;;31.60;56.20;;;;;;4986388;28;20442;-67
2022/08/30 15:27:58;;;;;;;5.10;4.70;;;31.60;57.10;;;;;;4985628;28;20845;-66
2022/08/30 15:30:25;;;;;;;7.20;5.20;;;31.60;57.30;;;;;;4985374;28;20458;-66
2022/08/30 15:32:52;;;;;;;5.57;5.20;;;31.50;56.60;;;;;;4985634;28;20453;-66
2022/08/30 15:35:19;;;;;;;5.60;5.17;;;31.50;56.90;;;;;;4984713;28;20454;-66
2022/08/30 15:37:45;;;;;;;5.53;5.10;;;31.30;57.30;;;;;;4981499;28;20451;-66
2022/08/30 15:40:12;;;;;;;5.57;5.17;;;31.30;57.40;;;;;;4978756;28;20458;-66
2022/08/30 15:42:41;;;;;;;6.10;5.60;;;31.30;57.50;;;;;;4978225;28;20474;-66
2022/08/30 15:45:09;;;;;;;5.47;5.17;;;31.30;58.10;;;;;;4977731;28;20465;-66
2022/08/30 15:47:35;;;;;;;6.00;5.60;;;31.20;57.40;;;;;;4977563;28;20815;-66
2022/08/30 15:50:05;;;;;;;6.40;5.90;;;31.10;57.50;;;;;;4977538;28;20462;-65
2022/08/30 15:52:32;;;;;;;6.10;5.70;;;30.90;57.10;;;;;;4977263;28;20561;-65
2022/08/30 15:54:59;;;;;;;5.70;5.20;;;30.70;57.00;;;;;;4977273;28;20455;-66
2022/08/30 15:57:26;;;;;;;5.73;5.33;;;30.50;58.20;;;;;;4977157;28;20450;-66
2022/08/30 15:59:54;;;;;;;6.47;5.90;;;30.30;58.70;;;;;;4977015;28;20954;-66
2022/08/30 16:02:21;;;;;;;6.20;5.60;;;30.00;58.80;;;;;;4976667;28;20541;-65
2022/08/30 16:04:48;;;;;;;5.70;5.20;;;29.90;59.60;;;;;;4977036;28;20454;-66
2022/08/30 16:07:15;;;;;;;6.30;5.70;;;29.80;59.60;;;;;;4977082;28;20474;-66
2022/08/30 16:09:42;;;;;;;6.40;5.77;;;29.70;59.70;;;;;;4977112;28;20466;-66
2022/08/30 16:12:09;;;;;;;6.37;5.87;;;29.60;60.10;;;;;;4976857;28;20485;-66
2022/08/30 16:14:36;;;;;;;6.63;6.13;;;29.50;61.00;;;;;;4977230;28;20454;-66
2022/08/30 16:17:05;;;;;;;6.80;6.13;;;29.40;60.90;;;;;;4977829;28;20455;-66
2022/08/30 16:19:31;;;;;;;6.20;5.60;;;29.30;61.20;;;;;;4976601;28;20950;-66
2022/08/30 16:21:58;;;;;;;7.53;6.07;;;29.20;61.10;;;;;;4976520;28;20981;-66
2022/08/30 16:24:25;;;;;;;9.70;5.77;;;29.00;61.60;;;;;;4976806;28;20454;-66
2022/08/30 16:26:52;;;;;;;6.50;6.00;;;28.90;61.30;;;;;;4976722;28;20471;-66
2022/08/30 16:29:19;;;;;;;6.67;6.07;;;28.80;61.80;;;;;;4976475;28;20446;-66
2022/08/30 16:31:46;;;;;;;6.20;5.80;;;28.80;62.40;;;;;;4976655;28;20483;-66
2022/08/30 16:34:16;;;;;;;6.37;5.83;;;28.70;62.40;;;;;;4976358;28;20458;-66
2022/08/30 16:36:43;;;;;;;6.40;5.80;;;28.70;62.60;;;;;;4976694;28;20463;-66
2022/08/30 16:39:11;;;;;;;5.60;5.20;;;28.70;62.50;;;;;;4976709;28;20459;-65
2022/08/30 16:41:38;;;;;;;6.40;6.00;;;28.70;63.00;;;;;;4976523;28;20570;-65
2022/08/30 16:44:06;;;;;;;7.80;5.97;;;28.70;62.70;;;;;;4976397;28;20513;-66
2022/08/30 16:46:34;;;;;;;5.10;4.80;;;28.70;62.70;;;;;;4976387;28;20458;-67
2022/08/30 16:49:01;;;;;;;6.43;5.87;;;28.70;62.20;;;;;;4976384;28;20474;-67
2022/08/30 16:51:31;;;;;;;5.90;5.40;;;28.60;62.50;;;;;;4975727;28;20545;-68
2022/08/30 16:54:00;;;;;;;5.90;5.40;;;28.50;62.90;;;;;;4975957;28;20190;-68
2022/08/30 16:56:28;;;;;;;6.10;5.60;;;28.50;62.50;;;;;;4976107;28;20442;-68
2022/08/30 16:58:56;;;;;;;6.27;5.77;;;28.40;62.80;;;;;;4976024;28;20481;-68
2022/08/30 17:01:23;;;;;;;6.00;5.57;;;28.40;62.80;;;;;;4975708;28;20494;-67
2022/08/30 17:03:51;;;;;;;5.67;5.33;;;28.30;64.00;;;;;;4976052;28;20831;-67
2022/08/30 17:06:18;;;;;;;5.83;5.33;;;28.30;63.80;;;;;;4976117;28;20455;-67
2022/08/30 17:08:46;;;;;;;6.47;5.83;;;28.20;64.50;;;;;;4975843;28;20483;-67